sensor_id;sensor_type;location;lat;lon;timestamp;temperature;humidity
11122;DHT22;5615;49.304;10.576;2023-08-06T00:00:56;13.20;99.90
11122;DHT22;5615;49.304;10.576;2023-08-06T00:03:23;13.10;99.90
11122;DHT22;5615;49.304;10.576;2023-08-06T00:05:50;13.00;99.90
11122;DHT22;5615;49.304;10.576;2023-08-06T00:08:16;12.80;99.90
11122;DHT22;5615;49.304;10.576;2023-08-06T00:10:44;12.60;99.90
11122;DHT22;5615;49.304;10.576;2023-08-06T00:13:13;12.50;99.90
11122;DHT22;5615;49.304;10.576;2023-08-06T00:15:40;12.40;99.90
11122;DHT22;5615;49.304;10.576;2023-08-06T00:18:07;12.50;99.90
11122;DHT22;5615;49.304;10.576;2023-08-06T00:20:33;12.50;99.90
11122;DHT22;5615;49.304;10.576;2023-08-06T00:23:00;12.50;99.90
11122;DHT22;5615;49.304;10.576;2023-08-06T00:25:27;12.40;99.90
11122;DHT22;5615;49.304;10.576;2023-08-06T00:27:55;12.50;99.90
11122;DHT22;5615;49.304;10.576;2023-08-06T00:30:22;12.60;99.90
11122;DHT22;5615;49.304;10.576;2023-08-06T00:32:48;12.70;99.90
11122;DHT22;5615;49.304;10.576;2023-08-06T00:35:15;12.70;99.90
11122;DHT22;5615;49.304;10.576;2023-08-06T00:37:42;12.80;99.90
11122;DHT22;5615;49.304;10.576;2023-08-06T00:40:09;12.80;99.90
11122;DHT22;5615;49.304;10.576;2023-08-06T00:42:35;12.90;99.90
11122;DHT22;5615;49.304;10.576;2023-08-06T00:45:04;12.90;99.90
11122;DHT22;5615;49.304;10.576;2023-08-06T00:47:31;12.80;99.90
11122;DHT22;5615;49.304;10.576;2023-08-06T00:49:57;12.80;99.90
11122;DHT22;5615;49.304;10.576;2023-08-06T00:52:24;12.70;99.90
11122;DHT22;5615;49.304;10.576;2023-08-06T00:54:51;12.70;99.90
11122;DHT22;5615;49.304;10.576;2023-08-06T00:57:18;12.70;99.90
11122;DHT22;5615;49.304;10.576;2023-08-06T00:59:45;12.70;99.90
11122;DHT22;5615;49.304;10.576;2023-08-06T01:02:13;12.60;99.90
11122;DHT22;5615;49.304;10.576;2023-08-06T01:04:40;12.70;99.90
11122;DHT22;5615;49.304;10.576;2023-08-06T01:07:16;12.70;99.90
11122;DHT22;5615;49.304;10.576;2023-08-06T01:09:50;12.70;99.90
11122;DHT22;5615;49.304;10.576;2023-08-06T01:12:25;12.80;99.90
11122;DHT22;5615;49.304;10.576;2023-08-06T01:15:02;12.90;99.90
11122;DHT22;5615;49.304;10.576;2023-08-06T01:17:35;12.90;99.90
11122;DHT22;5615;49.304;10.576;2023-08-06T01:20:03;13.00;99.90
11122;DHT22;5615;49.304;10.576;2023-08-06T01:22:31;13.00;99.90
11122;DHT22;5615;49.304;10.576;2023-08-06T01:24:57;13.00;99.90
11122;DHT22;5615;49.304;10.576;2023-08-06T01:27:30;13.10;99.90
11122;DHT22;5615;49.304;10.576;2023-08-06T01:30:06;13.00;99.90
11122;DHT22;5615;49.304;10.576;2023-08-06T01:32:40;13.00;99.90
11122;DHT22;5615;49.304;10.576;2023-08-06T01:35:10;13.00;99.90
11122;DHT22;5615;49.304;10.576;2023-08-06T01:37:39;13.00;99.90
11122;DHT22;5615;49.304;10.576;2023-08-06T01:40:07;13.10;99.90
11122;DHT22;5615;49.304;10.576;2023-08-06T01:42:36;13.00;99.90
11122;DHT22;5615;49.304;10.576;2023-08-06T01:45:03;12.90;99.90
11122;DHT22;5615;49.304;10.576;2023-08-06T01:47:29;12.90;99.90
11122;DHT22;5615;49.304;10.576;2023-08-06T01:49:56;12.80;99.90
11122;DHT22;5615;49.304;10.576;2023-08-06T01:52:23;12.80;99.90
11122;DHT22;5615;49.304;10.576;2023-08-06T01:54:50;12.70;99.90
11122;DHT22;5615;49.304;10.576;2023-08-06T01:57:17;12.60;99.90
11122;DHT22;5615;49.304;10.576;2023-08-06T01:59:44;12.60;99.90
11122;DHT22;5615;49.304;10.576;2023-08-06T02:02:10;12.70;99.90
11122;DHT22;5615;49.304;10.576;2023-08-06T02:04:37;12.60;99.90
11122;DHT22;5615;49.304;10.576;2023-08-06T02:07:04;12.60;99.90
11122;DHT22;5615;49.304;10.576;2023-08-06T02:09:31;12.50;99.90
11122;DHT22;5615;49.304;10.576;2023-08-06T02:11:59;12.50;99.90
11122;DHT22;5615;49.304;10.576;2023-08-06T02:14:25;12.40;99.90
11122;DHT22;5615;49.304;10.576;2023-08-06T02:16:52;12.40;99.90
11122;DHT22;5615;49.304;10.576;2023-08-06T02:19:18;12.40;99.90
11122;DHT22;5615;49.304;10.576;2023-08-06T02:21:45;12.50;99.90
11122;DHT22;5615;49.304;10.576;2023-08-06T02:24:12;12.50;99.90
11122;DHT22;5615;49.304;10.576;2023-08-06T02:26:38;12.40;99.90
11122;DHT22;5615;49.304;10.576;2023-08-06T02:29:06;12.50;99.90
11122;DHT22;5615;49.304;10.576;2023-08-06T02:31:33;12.50;99.90
11122;DHT22;5615;49.304;10.576;2023-08-06T02:33:59;12.40;99.90
11122;DHT22;5615;49.304;10.576;2023-08-06T02:36:26;12.30;99.90
11122;DHT22;5615;49.304;10.576;2023-08-06T02:38:54;12.20;99.90
11122;DHT22;5615;49.304;10.576;2023-08-06T02:41:21;12.20;99.90
11122;DHT22;5615;49.304;10.576;2023-08-06T02:43:47;12.20;99.90
11122;DHT22;5615;49.304;10.576;2023-08-06T02:46:16;12.10;99.90
11122;DHT22;5615;49.304;10.576;2023-08-06T02:48:43;12.10;99.90
11122;DHT22;5615;49.304;10.576;2023-08-06T02:51:09;12.00;99.90
11122;DHT22;5615;49.304;10.576;2023-08-06T02:53:36;12.00;99.90
11122;DHT22;5615;49.304;10.576;2023-08-06T02:56:03;12.10;99.90
11122;DHT22;5615;49.304;10.576;2023-08-06T02:58:29;12.10;99.90
11122;DHT22;5615;49.304;10.576;2023-08-06T03:01:00;12.00;99.90
11122;DHT22;5615;49.304;10.576;2023-08-06T03:03:29;12.00;99.90
11122;DHT22;5615;49.304;10.576;2023-08-06T03:05:56;12.00;99.90
11122;DHT22;5615;49.304;10.576;2023-08-06T03:08:23;11.90;99.90
11122;DHT22;5615;49.304;10.576;2023-08-06T03:10:50;11.90;99.90
11122;DHT22;5615;49.304;10.576;2023-08-06T03:13:17;11.90;99.90
11122;DHT22;5615;49.304;10.576;2023-08-06T03:15:51;11.80;99.90
11122;DHT22;5615;49.304;10.576;2023-08-06T03:18:17;11.90;99.90
11122;DHT22;5615;49.304;10.576;2023-08-06T03:20:46;11.90;99.90
11122;DHT22;5615;49.304;10.576;2023-08-06T03:23:12;11.90;99.90
11122;DHT22;5615;49.304;10.576;2023-08-06T03:25:39;11.90;99.90
11122;DHT22;5615;49.304;10.576;2023-08-06T03:28:06;11.90;99.90
11122;DHT22;5615;49.304;10.576;2023-08-06T03:30:32;11.80;99.90
11122;DHT22;5615;49.304;10.576;2023-08-06T03:32:59;11.90;99.90
11122;DHT22;5615;49.304;10.576;2023-08-06T03:35:25;11.80;99.90
11122;DHT22;5615;49.304;10.576;2023-08-06T03:37:53;11.90;99.90
11122;DHT22;5615;49.304;10.576;2023-08-06T03:40:20;11.80;99.90
11122;DHT22;5615;49.304;10.576;2023-08-06T03:42:47;11.80;99.90
11122;DHT22;5615;49.304;10.576;2023-08-06T03:45:13;11.80;99.90
11122;DHT22;5615;49.304;10.576;2023-08-06T03:47:40;11.70;99.90
11122;DHT22;5615;49.304;10.576;2023-08-06T03:50:07;11.70;99.90
11122;DHT22;5615;49.304;10.576;2023-08-06T03:52:34;11.70;99.90
11122;DHT22;5615;49.304;10.576;2023-08-06T03:55:02;11.70;99.90
11122;DHT22;5615;49.304;10.576;2023-08-06T03:57:29;11.70;99.90
11122;DHT22;5615;49.304;10.576;2023-08-06T03:59:55;11.70;99.90
11122;DHT22;5615;49.304;10.576;2023-08-06T04:02:22;11.70;99.90
11122;DHT22;5615;49.304;10.576;2023-08-06T04:04:49;11.80;99.90
11122;DHT22;5615;49.304;10.576;2023-08-06T04:07:15;11.90;99.90
11122;DHT22;5615;49.304;10.576;2023-08-06T04:09:53;12.00;99.90
11122;DHT22;5615;49.304;10.576;2023-08-06T04:12:21;12.00;99.90
11122;DHT22;5615;49.304;10.576;2023-08-06T04:14:47;12.10;99.90
11122;DHT22;5615;49.304;10.576;2023-08-06T04:17:14;12.10;99.90
11122;DHT22;5615;49.304;10.576;2023-08-06T04:19:41;12.10;99.90
11122;DHT22;5615;49.304;10.576;2023-08-06T04:22:07;12.10;99.90
11122;DHT22;5615;49.304;10.576;2023-08-06T04:24:34;12.10;99.90
11122;DHT22;5615;49.304;10.576;2023-08-06T04:27:00;12.10;99.90
11122;DHT22;5615;49.304;10.576;2023-08-06T04:29:28;12.10;99.90
11122;DHT22;5615;49.304;10.576;2023-08-06T04:31:55;12.00;99.90
11122;DHT22;5615;49.304;10.576;2023-08-06T04:34:22;12.00;99.90
11122;DHT22;5615;49.304;10.576;2023-08-06T04:36:48;12.00;99.90
11122;DHT22;5615;49.304;10.576;2023-08-06T04:39:15;12.10;99.90
11122;DHT22;5615;49.304;10.576;2023-08-06T04:41:42;12.10;99.90
11122;DHT22;5615;49.304;10.576;2023-08-06T04:44:08;12.20;99.90
11122;DHT22;5615;49.304;10.576;2023-08-06T04:46:36;12.20;99.90
11122;DHT22;5615;49.304;10.576;2023-08-06T04:49:03;12.20;99.90
11122;DHT22;5615;49.304;10.576;2023-08-06T04:51:30;12.30;99.90
11122;DHT22;5615;49.304;10.576;2023-08-06T04:53:57;12.40;99.90
11122;DHT22;5615;49.304;10.576;2023-08-06T04:56:23;12.40;99.90
11122;DHT22;5615;49.304;10.576;2023-08-06T04:58:50;12.40;99.90
11122;DHT22;5615;49.304;10.576;2023-08-06T05:01:17;12.50;99.90
11122;DHT22;5615;49.304;10.576;2023-08-06T05:03:46;12.60;99.90
11122;DHT22;5615;49.304;10.576;2023-08-06T05:06:13;12.80;99.90
11122;DHT22;5615;49.304;10.576;2023-08-06T05:08:39;12.90;99.90
11122;DHT22;5615;49.304;10.576;2023-08-06T05:11:06;13.00;99.90
11122;DHT22;5615;49.304;10.576;2023-08-06T05:13:32;13.20;99.90
11122;DHT22;5615;49.304;10.576;2023-08-06T05:15:59;13.40;99.90
11122;DHT22;5615;49.304;10.576;2023-08-06T05:18:26;13.70;99.90
11122;DHT22;5615;49.304;10.576;2023-08-06T05:20:54;13.80;99.90
11122;DHT22;5615;49.304;10.576;2023-08-06T05:23:20;13.80;99.90
11122;DHT22;5615;49.304;10.576;2023-08-06T05:25:47;13.80;99.90
11122;DHT22;5615;49.304;10.576;2023-08-06T05:28:13;13.70;99.90
11122;DHT22;5615;49.304;10.576;2023-08-06T05:30:40;13.70;99.90
11122;DHT22;5615;49.304;10.576;2023-08-06T05:33:07;13.70;99.90
11122;DHT22;5615;49.304;10.576;2023-08-06T05:35:34;13.70;99.90
11122;DHT22;5615;49.304;10.576;2023-08-06T05:38:02;13.70;99.90
11122;DHT22;5615;49.304;10.576;2023-08-06T05:40:28;13.70;99.90
11122;DHT22;5615;49.304;10.576;2023-08-06T05:42:55;13.70;99.90
11122;DHT22;5615;49.304;10.576;2023-08-06T05:45:21;13.80;99.90
11122;DHT22;5615;49.304;10.576;2023-08-06T05:47:48;13.80;99.90
11122;DHT22;5615;49.304;10.576;2023-08-06T05:50:15;13.80;99.90
11122;DHT22;5615;49.304;10.576;2023-08-06T05:52:42;13.90;99.90
11122;DHT22;5615;49.304;10.576;2023-08-06T05:55:10;13.90;99.90
11122;DHT22;5615;49.304;10.576;2023-08-06T05:57:36;14.00;99.90
11122;DHT22;5615;49.304;10.576;2023-08-06T06:00:03;14.10;99.90
11122;DHT22;5615;49.304;10.576;2023-08-06T06:02:31;14.30;99.90
11122;DHT22;5615;49.304;10.576;2023-08-06T06:04:58;14.40;99.90
11122;DHT22;5615;49.304;10.576;2023-08-06T06:07:24;14.40;99.90
11122;DHT22;5615;49.304;10.576;2023-08-06T06:09:51;14.50;99.90
11122;DHT22;5615;49.304;10.576;2023-08-06T06:12:19;14.50;99.90
11122;DHT22;5615;49.304;10.576;2023-08-06T06:14:47;14.50;99.90
11122;DHT22;5615;49.304;10.576;2023-08-06T06:17:14;14.50;99.90
11122;DHT22;5615;49.304;10.576;2023-08-06T06:19:41;14.50;99.90
11122;DHT22;5615;49.304;10.576;2023-08-06T06:22:07;14.50;99.90
11122;DHT22;5615;49.304;10.576;2023-08-06T06:24:34;14.50;99.90
11122;DHT22;5615;49.304;10.576;2023-08-06T06:27:01;14.50;99.90
11122;DHT22;5615;49.304;10.576;2023-08-06T06:29:29;14.50;99.90
11122;DHT22;5615;49.304;10.576;2023-08-06T06:31:55;14.50;99.90
11122;DHT22;5615;49.304;10.576;2023-08-06T06:34:22;14.50;99.90
11122;DHT22;5615;49.304;10.576;2023-08-06T06:36:48;14.50;99.90
11122;DHT22;5615;49.304;10.576;2023-08-06T06:39:15;14.50;99.90
11122;DHT22;5615;49.304;10.576;2023-08-06T06:41:42;14.40;99.90
11122;DHT22;5615;49.304;10.576;2023-08-06T06:44:09;14.40;99.90
11122;DHT22;5615;49.304;10.576;2023-08-06T06:46:37;14.40;99.90
11122;DHT22;5615;49.304;10.576;2023-08-06T06:49:04;14.40;99.90
11122;DHT22;5615;49.304;10.576;2023-08-06T06:51:31;14.40;99.90
11122;DHT22;5615;49.304;10.576;2023-08-06T06:53:58;14.40;99.90
11122;DHT22;5615;49.304;10.576;2023-08-06T06:56:24;14.60;99.90
11122;DHT22;5615;49.304;10.576;2023-08-06T06:58:51;14.80;99.90
11122;DHT22;5615;49.304;10.576;2023-08-06T07:01:17;14.80;99.90
11122;DHT22;5615;49.304;10.576;2023-08-06T07:03:45;14.80;99.90
11122;DHT22;5615;49.304;10.576;2023-08-06T07:06:12;15.00;99.90
11122;DHT22;5615;49.304;10.576;2023-08-06T07:08:41;15.00;99.90
11122;DHT22;5615;49.304;10.576;2023-08-06T07:11:07;15.00;99.90
11122;DHT22;5615;49.304;10.576;2023-08-06T07:13:34;15.00;99.90
11122;DHT22;5615;49.304;10.576;2023-08-06T07:16:01;15.00;99.90
11122;DHT22;5615;49.304;10.576;2023-08-06T07:18:28;15.10;99.90
11122;DHT22;5615;49.304;10.576;2023-08-06T07:20:56;15.10;99.90
11122;DHT22;5615;49.304;10.576;2023-08-06T07:23:24;15.00;99.90
11122;DHT22;5615;49.304;10.576;2023-08-06T07:25:51;14.90;99.90
11122;DHT22;5615;49.304;10.576;2023-08-06T07:28:17;14.60;99.90
11122;DHT22;5615;49.304;10.576;2023-08-06T07:30:45;14.40;99.90
11122;DHT22;5615;49.304;10.576;2023-08-06T07:33:12;14.10;99.90
11122;DHT22;5615;49.304;10.576;2023-08-06T07:35:38;14.20;99.90
11122;DHT22;5615;49.304;10.576;2023-08-06T07:38:06;14.30;99.90
11122;DHT22;5615;49.304;10.576;2023-08-06T07:40:35;14.20;99.90
11122;DHT22;5615;49.304;10.576;2023-08-06T07:43:01;14.50;99.90
11122;DHT22;5615;49.304;10.576;2023-08-06T07:45:32;14.70;99.90
11122;DHT22;5615;49.304;10.576;2023-08-06T07:47:59;14.90;99.90
11122;DHT22;5615;49.304;10.576;2023-08-06T07:50:26;14.80;99.90
11122;DHT22;5615;49.304;10.576;2023-08-06T07:52:52;14.70;99.90
11122;DHT22;5615;49.304;10.576;2023-08-06T07:55:20;14.70;99.90
11122;DHT22;5615;49.304;10.576;2023-08-06T07:57:47;14.60;99.90
11122;DHT22;5615;49.304;10.576;2023-08-06T08:00:13;14.60;99.90
11122;DHT22;5615;49.304;10.576;2023-08-06T08:02:40;14.60;99.90
11122;DHT22;5615;49.304;10.576;2023-08-06T08:05:07;14.60;99.90
11122;DHT22;5615;49.304;10.576;2023-08-06T08:07:34;14.60;99.90
11122;DHT22;5615;49.304;10.576;2023-08-06T08:10:00;14.70;99.90
11122;DHT22;5615;49.304;10.576;2023-08-06T08:12:28;14.90;99.90
11122;DHT22;5615;49.304;10.576;2023-08-06T08:14:55;14.60;99.90
11122;DHT22;5615;49.304;10.576;2023-08-06T08:17:21;14.80;99.90
11122;DHT22;5615;49.304;10.576;2023-08-06T08:19:48;14.90;99.90
11122;DHT22;5615;49.304;10.576;2023-08-06T08:22:15;14.80;99.90
11122;DHT22;5615;49.304;10.576;2023-08-06T08:24:41;14.90;99.90
11122;DHT22;5615;49.304;10.576;2023-08-06T08:27:08;15.20;99.90
11122;DHT22;5615;49.304;10.576;2023-08-06T08:29:36;15.50;99.90
11122;DHT22;5615;49.304;10.576;2023-08-06T08:32:02;15.80;99.90
11122;DHT22;5615;49.304;10.576;2023-08-06T08:34:29;16.00;99.90
11122;DHT22;5615;49.304;10.576;2023-08-06T08:36:56;16.20;99.90
11122;DHT22;5615;49.304;10.576;2023-08-06T08:39:24;15.90;99.90
11122;DHT22;5615;49.304;10.576;2023-08-06T08:41:50;15.80;99.90
11122;DHT22;5615;49.304;10.576;2023-08-06T08:44:17;15.70;99.90
11122;DHT22;5615;49.304;10.576;2023-08-06T08:46:45;15.60;99.90
11122;DHT22;5615;49.304;10.576;2023-08-06T08:49:13;15.60;99.90
11122;DHT22;5615;49.304;10.576;2023-08-06T08:51:40;15.20;99.90
11122;DHT22;5615;49.304;10.576;2023-08-06T08:54:07;15.20;99.90
11122;DHT22;5615;49.304;10.576;2023-08-06T08:56:35;15.30;99.90
11122;DHT22;5615;49.304;10.576;2023-08-06T08:59:01;15.30;99.90
11122;DHT22;5615;49.304;10.576;2023-08-06T09:01:28;15.50;99.90
11122;DHT22;5615;49.304;10.576;2023-08-06T09:03:57;15.60;99.90
11122;DHT22;5615;49.304;10.576;2023-08-06T09:06:25;16.00;99.90
11122;DHT22;5615;49.304;10.576;2023-08-06T09:09:00;16.20;99.90
11122;DHT22;5615;49.304;10.576;2023-08-06T09:11:27;16.00;99.90
11122;DHT22;5615;49.304;10.576;2023-08-06T09:13:57;15.80;99.90
11122;DHT22;5615;49.304;10.576;2023-08-06T09:16:23;15.50;99.90
11122;DHT22;5615;49.304;10.576;2023-08-06T09:18:50;15.30;99.90
11122;DHT22;5615;49.304;10.576;2023-08-06T09:21:18;15.20;99.90
11122;DHT22;5615;49.304;10.576;2023-08-06T09:23:45;15.30;99.90
11122;DHT22;5615;49.304;10.576;2023-08-06T09:26:12;15.60;99.90
11122;DHT22;5615;49.304;10.576;2023-08-06T09:28:39;16.10;99.90
11122;DHT22;5615;49.304;10.576;2023-08-06T09:31:08;15.90;99.90
11122;DHT22;5615;49.304;10.576;2023-08-06T09:33:36;16.20;99.90
11122;DHT22;5615;49.304;10.576;2023-08-06T09:36:10;16.30;99.90
11122;DHT22;5615;49.304;10.576;2023-08-06T09:38:41;16.60;99.90
11122;DHT22;5615;49.304;10.576;2023-08-06T09:41:07;16.80;99.90
11122;DHT22;5615;49.304;10.576;2023-08-06T09:43:41;16.80;99.90
11122;DHT22;5615;49.304;10.576;2023-08-06T09:46:12;16.70;99.90
11122;DHT22;5615;49.304;10.576;2023-08-06T09:48:40;16.20;99.90
11122;DHT22;5615;49.304;10.576;2023-08-06T09:51:08;15.20;99.90
11122;DHT22;5615;49.304;10.576;2023-08-06T09:53:37;14.70;99.90
11122;DHT22;5615;49.304;10.576;2023-08-06T09:56:05;14.70;99.90
11122;DHT22;5615;49.304;10.576;2023-08-06T09:58:32;14.60;99.90
11122;DHT22;5615;49.304;10.576;2023-08-06T10:01:00;14.70;99.90
11122;DHT22;5615;49.304;10.576;2023-08-06T10:03:29;14.80;99.90
11122;DHT22;5615;49.304;10.576;2023-08-06T10:05:56;15.00;99.90
11122;DHT22;5615;49.304;10.576;2023-08-06T10:08:24;15.00;99.90
11122;DHT22;5615;49.304;10.576;2023-08-06T10:10:50;15.30;99.90
11122;DHT22;5615;49.304;10.576;2023-08-06T10:13:20;15.30;99.90
11122;DHT22;5615;49.304;10.576;2023-08-06T10:15:47;15.50;99.90
11122;DHT22;5615;49.304;10.576;2023-08-06T10:18:15;15.50;99.90
11122;DHT22;5615;49.304;10.576;2023-08-06T10:20:46;15.70;99.90
11122;DHT22;5615;49.304;10.576;2023-08-06T10:23:13;16.60;99.90
11122;DHT22;5615;49.304;10.576;2023-08-06T10:25:41;17.50;99.90
11122;DHT22;5615;49.304;10.576;2023-08-06T10:28:09;15.60;99.90
11122;DHT22;5615;49.304;10.576;2023-08-06T10:30:43;15.30;99.90
11122;DHT22;5615;49.304;10.576;2023-08-06T10:33:10;15.00;99.90
11122;DHT22;5615;49.304;10.576;2023-08-06T10:35:40;15.10;99.90
11122;DHT22;5615;49.304;10.576;2023-08-06T10:38:10;15.50;99.90
11122;DHT22;5615;49.304;10.576;2023-08-06T10:40:39;16.10;99.90
11122;DHT22;5615;49.304;10.576;2023-08-06T10:43:06;15.90;99.90
11122;DHT22;5615;49.304;10.576;2023-08-06T10:45:37;16.20;99.90
11122;DHT22;5615;49.304;10.576;2023-08-06T10:48:06;16.80;99.90
11122;DHT22;5615;49.304;10.576;2023-08-06T10:50:32;17.20;99.90
11122;DHT22;5615;49.304;10.576;2023-08-06T10:53:04;16.90;99.90
11122;DHT22;5615;49.304;10.576;2023-08-06T10:55:31;17.00;99.90
11122;DHT22;5615;49.304;10.576;2023-08-06T10:57:58;17.60;99.90
11122;DHT22;5615;49.304;10.576;2023-08-06T11:00:25;17.60;99.90
11122;DHT22;5615;49.304;10.576;2023-08-06T11:02:52;17.00;99.90
11122;DHT22;5615;49.304;10.576;2023-08-06T11:05:20;16.60;99.90
11122;DHT22;5615;49.304;10.576;2023-08-06T11:07:48;16.10;99.90
11122;DHT22;5615;49.304;10.576;2023-08-06T11:10:17;15.80;99.90
11122;DHT22;5615;49.304;10.576;2023-08-06T11:12:44;15.80;99.90
11122;DHT22;5615;49.304;10.576;2023-08-06T11:15:11;16.10;99.90
11122;DHT22;5615;49.304;10.576;2023-08-06T11:17:39;16.40;99.90
11122;DHT22;5615;49.304;10.576;2023-08-06T11:20:07;16.60;99.90
11122;DHT22;5615;49.304;10.576;2023-08-06T11:22:36;16.80;99.90
11122;DHT22;5615;49.304;10.576;2023-08-06T11:25:03;17.40;99.90
11122;DHT22;5615;49.304;10.576;2023-08-06T11:27:29;17.30;99.90
11122;DHT22;5615;49.304;10.576;2023-08-06T11:29:56;16.40;99.90
11122;DHT22;5615;49.304;10.576;2023-08-06T11:32:23;16.20;99.90
11122;DHT22;5615;49.304;10.576;2023-08-06T11:34:50;16.00;99.90
11122;DHT22;5615;49.304;10.576;2023-08-06T11:37:20;16.00;99.90
11122;DHT22;5615;49.304;10.576;2023-08-06T11:39:50;16.10;99.90
11122;DHT22;5615;49.304;10.576;2023-08-06T11:42:16;17.00;99.90
11122;DHT22;5615;49.304;10.576;2023-08-06T11:44:43;17.30;99.90
11122;DHT22;5615;49.304;10.576;2023-08-06T11:47:14;17.90;99.90
11122;DHT22;5615;49.304;10.576;2023-08-06T11:49:45;18.30;99.90
11122;DHT22;5615;49.304;10.576;2023-08-06T11:52:17;18.20;99.90
11122;DHT22;5615;49.304;10.576;2023-08-06T11:54:44;17.10;99.90
11122;DHT22;5615;49.304;10.576;2023-08-06T11:57:13;16.80;99.90
11122;DHT22;5615;49.304;10.576;2023-08-06T11:59:39;16.00;99.90
11122;DHT22;5615;49.304;10.576;2023-08-06T12:02:08;15.40;99.90
11122;DHT22;5615;49.304;10.576;2023-08-06T12:05:00;15.80;99.90
11122;DHT22;5615;49.304;10.576;2023-08-06T12:07:28;17.20;99.90
11122;DHT22;5615;49.304;10.576;2023-08-06T12:09:55;17.90;99.90
11122;DHT22;5615;49.304;10.576;2023-08-06T12:12:24;17.10;99.90
11122;DHT22;5615;49.304;10.576;2023-08-06T12:14:50;16.70;99.90
11122;DHT22;5615;49.304;10.576;2023-08-06T12:17:17;16.60;99.90
11122;DHT22;5615;49.304;10.576;2023-08-06T12:19:44;16.30;99.90
11122;DHT22;5615;49.304;10.576;2023-08-06T12:22:12;16.30;99.90
11122;DHT22;5615;49.304;10.576;2023-08-06T12:24:38;16.00;99.90
11122;DHT22;5615;49.304;10.576;2023-08-06T12:27:05;15.80;99.90
11122;DHT22;5615;49.304;10.576;2023-08-06T12:29:33;15.50;99.90
11122;DHT22;5615;49.304;10.576;2023-08-06T12:32:00;15.90;99.90
11122;DHT22;5615;49.304;10.576;2023-08-06T12:34:27;16.60;99.90
11122;DHT22;5615;49.304;10.576;2023-08-06T12:36:53;17.10;99.90
11122;DHT22;5615;49.304;10.576;2023-08-06T12:39:20;16.50;99.90
11122;DHT22;5615;49.304;10.576;2023-08-06T12:41:46;16.60;99.90
11122;DHT22;5615;49.304;10.576;2023-08-06T12:44:14;16.40;99.90
11122;DHT22;5615;49.304;10.576;2023-08-06T12:46:42;15.70;99.90
11122;DHT22;5615;49.304;10.576;2023-08-06T12:49:08;15.50;99.90
11122;DHT22;5615;49.304;10.576;2023-08-06T12:51:35;14.90;99.90
11122;DHT22;5615;49.304;10.576;2023-08-06T12:54:02;14.80;99.90
11122;DHT22;5615;49.304;10.576;2023-08-06T12:56:28;14.50;99.90
11122;DHT22;5615;49.304;10.576;2023-08-06T12:58:55;14.50;99.90
11122;DHT22;5615;49.304;10.576;2023-08-06T13:01:22;14.60;99.90
11122;DHT22;5615;49.304;10.576;2023-08-06T13:03:49;14.40;99.90
11122;DHT22;5615;49.304;10.576;2023-08-06T13:06:16;14.40;99.90
11122;DHT22;5615;49.304;10.576;2023-08-06T13:08:43;14.30;99.90
11122;DHT22;5615;49.304;10.576;2023-08-06T13:11:09;14.40;99.90
11122;DHT22;5615;49.304;10.576;2023-08-06T13:13:36;14.50;99.90
11122;DHT22;5615;49.304;10.576;2023-08-06T13:16:03;14.30;99.90
11122;DHT22;5615;49.304;10.576;2023-08-06T13:18:30;14.20;99.90
11122;DHT22;5615;49.304;10.576;2023-08-06T13:20:58;14.40;99.90
11122;DHT22;5615;49.304;10.576;2023-08-06T13:23:24;14.20;99.90
11122;DHT22;5615;49.304;10.576;2023-08-06T13:25:51;14.10;99.90
11122;DHT22;5615;49.304;10.576;2023-08-06T13:28:18;14.10;99.90
11122;DHT22;5615;49.304;10.576;2023-08-06T13:30:45;14.00;99.90
11122;DHT22;5615;49.304;10.576;2023-08-06T13:33:12;13.90;99.90
11122;DHT22;5615;49.304;10.576;2023-08-06T13:35:38;13.60;99.90
11122;DHT22;5615;49.304;10.576;2023-08-06T13:38:06;13.50;99.90
11122;DHT22;5615;49.304;10.576;2023-08-06T13:40:34;13.40;99.90
11122;DHT22;5615;49.304;10.576;2023-08-06T13:43:00;13.50;99.90
11122;DHT22;5615;49.304;10.576;2023-08-06T13:45:27;13.50;99.90
11122;DHT22;5615;49.304;10.576;2023-08-06T13:47:55;13.60;99.90
11122;DHT22;5615;49.304;10.576;2023-08-06T13:50:21;13.50;99.90
11122;DHT22;5615;49.304;10.576;2023-08-06T13:52:51;13.40;99.90
11122;DHT22;5615;49.304;10.576;2023-08-06T13:55:19;13.20;99.90
11122;DHT22;5615;49.304;10.576;2023-08-06T13:57:46;13.10;99.90
11122;DHT22;5615;49.304;10.576;2023-08-06T14:00:13;13.20;99.90
11122;DHT22;5615;49.304;10.576;2023-08-06T14:02:40;13.00;99.90
11122;DHT22;5615;49.304;10.576;2023-08-06T14:05:09;13.00;99.90
11122;DHT22;5615;49.304;10.576;2023-08-06T14:07:36;13.00;99.90
11122;DHT22;5615;49.304;10.576;2023-08-06T14:10:04;12.90;99.90
11122;DHT22;5615;49.304;10.576;2023-08-06T14:12:32;12.90;99.90
11122;DHT22;5615;49.304;10.576;2023-08-06T14:14:59;12.90;99.90
11122;DHT22;5615;49.304;10.576;2023-08-06T14:17:25;12.90;99.90
11122;DHT22;5615;49.304;10.576;2023-08-06T14:19:52;13.10;99.90
11122;DHT22;5615;49.304;10.576;2023-08-06T14:22:19;13.20;99.90
11122;DHT22;5615;49.304;10.576;2023-08-06T14:24:45;13.20;99.90
11122;DHT22;5615;49.304;10.576;2023-08-06T14:27:13;13.20;99.90
11122;DHT22;5615;49.304;10.576;2023-08-06T14:29:41;13.40;99.90
11122;DHT22;5615;49.304;10.576;2023-08-06T14:32:07;13.30;99.90
11122;DHT22;5615;49.304;10.576;2023-08-06T14:34:34;13.20;99.90
11122;DHT22;5615;49.304;10.576;2023-08-06T14:37:01;13.10;99.90
11122;DHT22;5615;49.304;10.576;2023-08-06T14:39:27;13.00;99.90
11122;DHT22;5615;49.304;10.576;2023-08-06T14:41:54;12.80;99.90
11122;DHT22;5615;49.304;10.576;2023-08-06T14:44:21;12.70;99.90
11122;DHT22;5615;49.304;10.576;2023-08-06T14:46:49;12.60;99.90
11122;DHT22;5615;49.304;10.576;2023-08-06T14:49:15;12.50;99.90
11122;DHT22;5615;49.304;10.576;2023-08-06T14:51:42;12.60;99.90
11122;DHT22;5615;49.304;10.576;2023-08-06T14:54:09;12.70;99.90
11122;DHT22;5615;49.304;10.576;2023-08-06T14:56:35;12.70;99.90
11122;DHT22;5615;49.304;10.576;2023-08-06T14:59:02;12.70;99.90
11122;DHT22;5615;49.304;10.576;2023-08-06T15:01:28;12.80;99.90
11122;DHT22;5615;49.304;10.576;2023-08-06T15:03:56;12.90;99.90
11122;DHT22;5615;49.304;10.576;2023-08-06T15:06:23;12.90;99.90
11122;DHT22;5615;49.304;10.576;2023-08-06T15:08:50;13.00;99.90
11122;DHT22;5615;49.304;10.576;2023-08-06T15:11:16;13.10;99.90
11122;DHT22;5615;49.304;10.576;2023-08-06T15:13:43;13.10;99.90
11122;DHT22;5615;49.304;10.576;2023-08-06T15:16:10;13.10;99.90
11122;DHT22;5615;49.304;10.576;2023-08-06T15:18:36;13.20;99.90
11122;DHT22;5615;49.304;10.576;2023-08-06T15:21:04;13.30;99.90
11122;DHT22;5615;49.304;10.576;2023-08-06T15:23:31;13.30;99.90
11122;DHT22;5615;49.304;10.576;2023-08-06T15:25:57;13.40;99.90
11122;DHT22;5615;49.304;10.576;2023-08-06T15:28:24;13.60;99.90
11122;DHT22;5615;49.304;10.576;2023-08-06T15:30:51;13.70;99.90